Flight Track Log - Related Links

Times and Time Zones

All times are in EDT time to prevent confusion due to time zone crossing. See the N449ND flight status page for this flight to view local times or setup timezone preferences in your user account.

Time Position Orientation Groundspeed Altitude Reporting Facility
EDT Latitude Longitude Course Direction KTS MPH feet Rate Location/Type
Tue 04:16:41 PM 27.4753 -80.3517 170° South 90 104 700  Level Miami Center
Tue 04:17:41 PM 27.4586 -80.3511 178° South 78 90 1,200 450 Climbing Miami Center
Tue 04:18:41 PM 27.4400 -80.3483 172° South 73 84 1,600 350 Climbing Miami Center
Tue 04:19:41 PM 27.4294 -80.3572 217° Southwest 58 67 1,900 450 Climbing Miami Center
Tue 04:20:41 PM 27.4225 -80.3803 251° West 66 76 2,500 450 Climbing Miami Center
Tue 04:21:00 PM 27.4956 -80.3723 170° South  Level FlightAware Approximate
Tue 04:21:41 PM 27.4200 -80.4014 262° West 71 82 2,800  Level Miami Center
Tue 04:22:00 PM 27.4953 -80.3722 170° South  Level FlightAware Approximate
Tue 04:22:41 PM 27.4256 -80.4250 285° West 71 82 3,100  Level Miami Center
Tue 04:23:41 PM 27.4469 -80.4069 37° Northeast 97 112 3,100  Level Miami Center
Tue 04:24:41 PM 27.4478 -80.3742 88° East 91 105 3,100 -50 Level Miami Center
Tue 04:25:41 PM 27.4550 -80.3322 79° East 117 135 3,000  Descending Miami Center
Tue 04:26:41 PM 27.4786 -80.3025 48° Northeast 117 135 3,100  Climbing Miami Center
Tue 04:27:41 PM 27.5022 -80.2728 48° Northeast 124 143 3,000 -50 Descending Miami Center
Tue 04:28:41 PM 27.5236 -80.2525 40° Northeast 118 136 3,000  Level Miami Center
Tue 04:29:41 PM 27.5267 -80.2197 84° East 99 114 3,000  Level Miami Center
Tue 04:30:41 PM 27.5100 -80.2075 147° Southeast 66 76 3,000  Level Miami Center
Tue 04:31:41 PM 27.5053 -80.2308 257° West 51 59 3,000  Level Miami Center
Tue 04:32:41 PM 27.5261 -80.2408 337° Northwest 69 79 3,000  Level Miami Center
Tue 04:33:41 PM 27.5556 -80.2253 25° Northeast 94 108 3,000 -200 Level Miami Center
Tue 04:34:41 PM 27.5761 -80.2375 332° Northwest 96 110 2,600 -500 Descending Miami Center
Tue 04:35:41 PM 27.5531 -80.2417 189° South 63 72 2,000 -300 Descending Miami Center
Tue 04:36:41 PM 27.5700 -80.2328 25° Northeast 19 22 2,000 -50 Level Miami Center
Tue 04:37:41 PM 27.5861 -80.2567 307° West 77 89 1,900 -50 Descending Miami Center
Tue 04:38:41 PM 27.6022 -80.2806 307° West 96 110 1,900 -50 Level Miami Center
Tue 04:39:41 PM 27.6122 -80.3089 292° West 95 109 1,800 -100 Descending Miami Center
Tue 04:40:41 PM 27.6219 -80.3372 291° West 95 109 1,700 -250 Descending Miami Center
Tue 04:41:41 PM 27.6317 -80.3611 295° West 90 104 1,300 -250 Descending Miami Center
Tue 04:42:41 PM 27.6417 -80.3825 298° West 90 104 1,200 150 Descending Miami Center
Tue 04:43:41 PM 27.6494 -80.4086 289° West 84 97 1,600 450 Climbing Miami Center
Tue 04:44:41 PM 27.6467 -80.4364 264° West 84 97 2,100 500 Climbing Miami Center
Tue 04:45:41 PM 27.6503 -80.4600 280° West 84 97 2,600 450 Climbing Miami Center
Tue 04:46:41 PM 27.6519 -80.4789 276° West 77 89 3,000 300 Climbing Miami Center
Tue 04:47:41 PM 27.6744 -80.4867 343° North 69 79 3,200 50 Climbing Miami Center
Tue 04:48:41 PM 27.7122 -80.4783 11° North 116 133 3,100 -100 Descending Miami Center
Tue 04:49:41 PM 27.7478 -80.4794 358° North 124 143 3,000 -50 Descending Miami Center
Tue 04:50:41 PM 27.7769 -80.4828 354° North 119 137 3,000  Level Miami Center
Tue 04:51:41 PM 27.8042 -80.4814 North 109 125 3,000 50 Level Miami Center
Tue 04:52:41 PM 27.7983 -80.4578 106° East 55 63 3,100  Climbing Miami Center
Tue 04:53:41 PM 27.7753 -80.4639 193° South 60 69 3,000 -50 Descending Miami Center
Tue 04:54:41 PM 27.7522 -80.4750 203° Southwest 90 104 3,000 50 Level Miami Center
Tue 04:55:41 PM 27.7331 -80.4839 202° Southwest 90 104 3,100 50 Climbing Miami Center
Tue 04:56:41 PM 27.7161 -80.4925 204° Southwest 85 98 3,100 -50 Level Miami Center
Tue 04:57:41 PM 27.6972 -80.5014 203° Southwest 80 92 3,000 -150 Descending Miami Center
Tue 04:58:41 PM 27.6781 -80.5150 212° Southwest 75 86 2,800 -300 Descending Miami Center
Tue 04:59:41 PM 27.6589 -80.5236 202° Southwest 75 86 2,400 -400 Descending Miami Center
Tue 05:00:41 PM 27.6381 -80.5322 200° South 75 86 2,000 -250 Descending Miami Center
Tue 05:01:41 PM 27.6239 -80.5086 124° Southeast 70 81 1,900 -100 Descending Miami Center
Tue 05:02:41 PM 27.6056 -80.4892 137° Southeast 88 101 1,800 -50 Descending Miami Center
Tue 05:03:41 PM 27.5833 -80.4672 139° Southeast 94 108 1,800  Level Miami Center
Tue 05:04:41 PM 27.5669 -80.4481 134° Southeast 89 102 1,800 -50 Level Miami Center
Tue 05:05:41 PM 27.5528 -80.4336 138° Southeast 89 102 1,700 -400 Descending Miami Center
Tue 05:06:41 PM 27.5364 -80.4192 142° Southeast 84 97 1,000 -450 Descending Miami Center
Tue 05:07:41 PM 27.5222 -80.3997 129° Southeast 84 97 800 -300 Descending Miami Center
Tue 05:08:41 PM 27.5019 -80.3781 137° Southeast 84 97 400  Descending Miami Center
Tue 05:09:41 PM 27.4856 -80.3683 152° Southeast 78 90 800 450 Climbing Miami Center
Tue 05:10:41 PM 27.4667 -80.3653 172° South 72 83 1,300 500 Climbing Miami Center
Tue 05:11:41 PM 27.4481 -80.3600 166° South 72 83 1,800 700 Climbing Miami Center
Tue 05:12:41 PM 27.4253 -80.3500 159° South 72 83 2,700 600 Climbing Miami Center
Tue 05:13:41 PM 27.4069 -80.3356 145° Southeast 72 83 3,000 150 Climbing Miami Center
Tue 05:14:41 PM 27.4225 -80.2986 65° Northeast 86 99 3,000  Level Miami Center
Tue 05:15:41 PM 27.4378 -80.2708 58° Northeast 116 133 3,000  Level Miami Center
Tue 05:16:41 PM 27.4572 -80.2386 56° Northeast 121 139 3,000 -200 Level Miami Center
Tue 05:17:41 PM 27.4747 -80.2017 62° Northeast 121 139 2,600 -500 Descending Miami Center
Tue 05:18:41 PM 27.4922 -80.1694 59° Northeast 121 139 2,000 -250 Descending Miami Center
Tue 05:19:41 PM 27.5136 -80.1419 49° Northeast 121 139 2,100 50 Climbing Miami Center
Tue 05:20:41 PM 27.5431 -80.1383 North 106 122 2,100  Level Miami Center
Tue 05:21:41 PM 27.5592 -80.1575 313° West 87 100 2,100  Level Miami Center
Tue 05:22:41 PM 27.5608 -80.1856 274° West 83 96 2,100 -50 Level Miami Center
Tue 05:23:41 PM 27.5581 -80.2111 263° West 90 104 2,000 -250 Descending Miami Center
Tue 05:24:41 PM 27.5492 -80.2319 244° Southwest 90 104 1,600 -450 Descending Miami Center
Tue 05:25:41 PM 27.5403 -80.2553 247° West 90 104 1,100 -400 Descending Miami Center
Tue 05:26:41 PM 27.5294 -80.2783 242° Southwest 90 104 800 50 Descending Miami Center
Tue 05:27:41 PM 27.5206 -80.3014 247° West 90 104 1,200 150 Climbing Miami Center
Tue 05:28:41 PM 27.5097 -80.3175 233° Southwest 78 90 1,100 -250 Descending Miami Center
Tue 05:29:41 PM 27.5028 -80.3383 249° West 72 83 700 -400 Descending Miami Center
Tue 05:30:41 PM 27.4983 -80.3547 253° West 72 83 300 -400 Descending Miami Center

Login

Don't have an account? Register now (free) for customized features, flight alerts, and more!